Time;durP1;ratioP1;P1;durP2;ratioP2;P2;SDS_P1;SDS_P2;PMS_P1;PMS_P2;Temp;Humidity;BMP_temperature;BMP_pressure;BME280_temperature;BME280_humidity;BME280_pressure;Samples;Min_cycle;Max_cycle;Signal;HPM_P1;HPM_P2
2024/01/18 00:00:49;;;;;;;10.75;5.07;;;;;;;;;;5064874;28;20091;-84
2024/01/18 00:03:15;;;;;;;10.05;4.32;;;;;;;;;;5049888;28;20049;-84
2024/01/18 00:05:41;;;;;;;10.60;4.10;;;;;;;;;;5057419;28;20036;-84
2024/01/18 00:08:07;;;;;;;5.25;2.90;;;;;;;;;;5044198;28;20492;-83
2024/01/18 00:10:33;;;;;;;6.53;2.92;;;;;;;;;;5035677;28;20407;-83
2024/01/18 00:12:59;;;;;;;6.45;3.30;;;;;;;;;;5046056;28;20197;-83
2024/01/18 00:15:26;;;;;;;3.63;1.80;;;;;;;;;;5056491;28;20049;-83
2024/01/18 00:17:52;;;;;;;5.32;1.77;;;;;;;;;;5042894;28;20044;-83
2024/01/18 00:20:18;;;;;;;8.25;1.98;;;;;;;;;;5066563;28;20048;-82
2024/01/18 00:22:44;;;;;;;6.70;1.58;;;;;;;;;;5041420;28;20048;-82
2024/01/18 00:25:10;;;;;;;5.32;1.70;;;;;;;;;;5047265;28;20032;-83
2024/01/18 00:27:36;;;;;;;6.00;1.40;;;;;;;;;;5068331;28;20047;-83
2024/01/18 00:30:03;;;;;;;5.05;1.83;;;;;;;;;;5047794;28;20064;-84
2024/01/18 00:32:29;;;;;;;3.10;1.15;;;;;;;;;;5065779;28;20048;-84
2024/01/18 00:34:55;;;;;;;2.95;0.80;;;;;;;;;;5066750;28;20036;-84
2024/01/18 00:37:21;;;;;;;5.65;0.90;;;;;;;;;;5048351;28;20036;-83
2024/01/18 00:39:47;;;;;;;4.50;0.95;;;;;;;;;;5065257;28;20060;-83
2024/01/18 00:42:13;;;;;;;4.60;1.02;;;;;;;;;;5052907;28;20141;-83
2024/01/18 00:44:39;;;;;;;3.00;0.50;;;;;;;;;;5064164;28;20480;-83
2024/01/18 00:47:05;;;;;;;8.15;0.85;;;;;;;;;;5063054;28;20378;-83
2024/01/18 00:49:32;;;;;;;1.42;1.02;;;;;;;;;;5030319;28;20043;-84
2024/01/18 00:51:58;;;;;;;2.80;0.52;;;;;;;;;;5028544;28;20488;-84
2024/01/18 00:54:24;;;;;;;2.50;0.50;;;;;;;;;;5046414;28;20556;-84
2024/01/18 00:56:50;;;;;;;5.75;0.60;;;;;;;;;;5048791;28;20480;-83
2024/01/18 00:59:17;;;;;;;5.15;0.57;;;;;;;;;;5045695;28;20454;-84
2024/01/18 01:01:43;;;;;;;2.30;0.63;;;;;;;;;;5045901;28;20499;-84
2024/01/18 01:04:09;;;;;;;11.02;0.73;;;;;;;;;;5049271;28;20695;-84
2024/01/18 01:06:35;;;;;;;3.67;0.68;;;;;;;;;;5050136;28;20039;-84
2024/01/18 01:09:01;;;;;;;4.07;0.60;;;;;;;;;;5049333;28;20377;-84
2024/01/18 01:11:27;;;;;;;2.83;0.52;;;;;;;;;;5038224;28;20076;-83
2024/01/18 01:13:54;;;;;;;5.25;0.55;;;;;;;;;;5071639;28;20040;-83
2024/01/18 01:16:20;;;;;;;4.80;0.60;;;;;;;;;;5067178;28;20033;-84
2024/01/18 01:18:46;;;;;;;1.63;0.50;;;;;;;;;;5032762;28;20060;-84
2024/01/18 01:21:13;;;;;;;7.95;0.93;;;;;;;;;;5052639;28;20048;-83
2024/01/18 01:23:41;;;;;;;3.45;0.45;;;;;;;;;;5065182;28;20033;-84
2024/01/18 01:26:10;;;;;;;2.45;0.70;;;;;;;;;;5054646;28;20032;-83
2024/01/18 01:28:37;;;;;;;3.33;0.68;;;;;;;;;;5053274;28;20108;-83
2024/01/18 01:31:03;;;;;;;6.82;0.73;;;;;;;;;;5052244;28;20314;-79
2024/01/18 01:33:29;;;;;;;3.47;1.48;;;;;;;;;;5052372;28;20495;-80
2024/01/18 01:35:56;;;;;;;3.55;0.68;;;;;;;;;;5068383;28;20044;-80
2024/01/18 01:38:22;;;;;;;9.48;1.25;;;;;;;;;;5033880;28;20037;-79
2024/01/18 01:40:48;;;;;;;3.17;0.68;;;;;;;;;;5048602;28;20116;-79
2024/01/18 01:43:16;;;;;;;10.30;1.33;;;;;;;;;;5048977;28;20205;-80
2024/01/18 01:45:43;;;;;;;4.43;0.40;;;;;;;;;;5034402;28;20044;-80
2024/01/18 01:48:09;;;;;;;2.58;0.93;;;;;;;;;;5065474;28;20032;-81
2024/01/18 01:50:36;;;;;;;6.00;0.65;;;;;;;;;;5046158;28;20040;-79
2024/01/18 01:53:02;;;;;;;3.25;0.55;;;;;;;;;;5067576;28;20041;-79
2024/01/18 01:55:30;;;;;;;3.55;1.67;;;;;;;;;;5050770;28;20036;-81
2024/01/18 01:57:56;;;;;;;3.65;0.68;;;;;;;;;;5044939;28;20531;-81
2024/01/18 02:00:23;;;;;;;4.13;0.68;;;;;;;;;;5066881;28;20097;-81
2024/01/18 02:02:50;;;;;;;5.00;1.00;;;;;;;;;;5047090;28;20040;-79
2024/01/18 02:05:16;;;;;;;3.53;0.90;;;;;;;;;;5046767;28;20328;-79
2024/01/18 02:07:42;;;;;;;2.33;0.60;;;;;;;;;;5046460;28;20380;-80
2024/01/18 02:10:09;;;;;;;1.45;0.50;;;;;;;;;;5067601;28;20047;-82
2024/01/18 02:12:35;;;;;;;2.00;0.65;;;;;;;;;;5045868;28;20036;-80
2024/01/18 02:15:01;;;;;;;8.80;0.88;;;;;;;;;;5048961;28;20047;-81
2024/01/18 02:17:28;;;;;;;2.72;0.35;;;;;;;;;;5048096;28;20053;-79
2024/01/18 02:19:54;;;;;;;4.03;0.65;;;;;;;;;;5046777;28;20142;-80
2024/01/18 02:22:23;;;;;;;1.50;0.40;;;;;;;;;;5048936;28;20107;-80
2024/01/18 02:24:53;;;;;;;4.88;0.50;;;;;;;;;;5045017;28;20052;-83
2024/01/18 02:27:20;;;;;;;5.40;1.25;;;;;;;;;;5061304;28;20048;-79
2024/01/18 02:29:46;;;;;;;2.00;0.75;;;;;;;;;;5030654;28;20537;-81
2024/01/18 02:32:12;;;;;;;1.38;0.50;;;;;;;;;;5061916;28;20044;-82
2024/01/18 02:34:43;;;;;;;2.60;0.57;;;;;;;;;;5047810;28;20073;-80
2024/01/18 02:37:10;;;;;;;1.42;0.60;;;;;;;;;;5047066;28;20549;-81
2024/01/18 02:39:36;;;;;;;2.17;0.57;;;;;;;;;;5065926;28;20488;-81
2024/01/18 02:42:05;;;;;;;0.63;0.40;;;;;;;;;;5046754;28;20150;-82
2024/01/18 02:44:32;;;;;;;4.40;0.50;;;;;;;;;;5048747;28;20044;-83
2024/01/18 02:46:58;;;;;;;2.17;0.57;;;;;;;;;;5052527;28;20047;-83
2024/01/18 02:49:24;;;;;;;3.55;0.77;;;;;;;;;;5034672;28;20533;-83
2024/01/18 02:51:50;;;;;;;1.98;0.50;;;;;;;;;;5051658;28;20060;-83
2024/01/18 02:54:16;;;;;;;6.68;0.70;;;;;;;;;;5049285;28;20079;-82
2024/01/18 02:56:42;;;;;;;7.95;1.00;;;;;;;;;;5051295;28;20040;-84
2024/01/18 02:59:10;;;;;;;3.45;0.90;;;;;;;;;;5067841;28;20034;-83
2024/01/18 03:01:36;;;;;;;1.45;0.50;;;;;;;;;;5036364;28;20032;-84
2024/01/18 03:04:02;;;;;;;3.70;1.33;;;;;;;;;;5051866;28;20507;-83
2024/01/18 03:06:28;;;;;;;4.75;1.10;;;;;;;;;;5047614;28;20392;-83
2024/01/18 03:08:54;;;;;;;3.92;0.95;;;;;;;;;;5045221;28;20082;-84
2024/01/18 03:11:20;;;;;;;5.10;0.90;;;;;;;;;;5053598;28;20115;-84
2024/01/18 03:13:46;;;;;;;1.85;0.60;;;;;;;;;;5051040;28;20040;-83
2024/01/18 03:16:12;;;;;;;5.25;1.13;;;;;;;;;;5051315;28;20085;-83
2024/01/18 03:18:38;;;;;;;4.90;0.73;;;;;;;;;;5067860;28;20052;-83
2024/01/18 03:21:07;;;;;;;1.38;0.95;;;;;;;;;;5089208;28;20052;-83
2024/01/18 03:23:34;;;;;;;3.08;0.47;;;;;;;;;;5047686;28;20036;-82
2024/01/18 03:26:00;;;;;;;2.92;0.70;;;;;;;;;;5052399;28;20059;-83
2024/01/18 03:28:26;;;;;;;1.92;0.70;;;;;;;;;;5066080;28;20040;-84
2024/01/18 03:30:53;;;;;;;4.32;0.65;;;;;;;;;;5068909;28;20506;-83
2024/01/18 03:33:19;;;;;;;5.95;0.90;;;;;;;;;;5048059;28;20045;-83
2024/01/18 03:35:45;;;;;;;3.28;0.70;;;;;;;;;;5050463;28;20708;-83
2024/01/18 03:38:11;;;;;;;3.55;0.75;;;;;;;;;;5033841;28;20029;-83
2024/01/18 03:40:40;;;;;;;5.28;1.00;;;;;;;;;;5049996;28;20178;-84
2024/01/18 03:43:06;;;;;;;1.67;0.80;;;;;;;;;;5049643;28;20499;-83
2024/01/18 03:45:32;;;;;;;5.13;0.80;;;;;;;;;;5051264;28;20036;-82
2024/01/18 03:47:58;;;;;;;2.63;0.88;;;;;;;;;;5068871;28;20373;-82
2024/01/18 03:50:24;;;;;;;4.65;1.30;;;;;;;;;;5051694;28;20036;-83
2024/01/18 03:52:50;;;;;;;4.47;0.70;;;;;;;;;;5067846;28;20040;-83
2024/01/18 03:55:16;;;;;;;4.47;0.90;;;;;;;;;;5051144;28;20046;-83
2024/01/18 03:57:42;;;;;;;2.50;0.65;;;;;;;;;;5045471;28;20045;-83
2024/01/18 04:00:12;;;;;;;4.35;0.60;;;;;;;;;;5031569;28;20086;-82
2024/01/18 04:02:38;;;;;;;3.85;0.82;;;;;;;;;;5068585;28;20033;-83
2024/01/18 04:05:05;;;;;;;2.80;0.43;;;;;;;;;;5067627;28;20048;-83
2024/01/18 04:07:31;;;;;;;4.53;0.55;;;;;;;;;;5051429;28;20063;-81
2024/01/18 04:09:57;;;;;;;3.10;0.52;;;;;;;;;;5034138;28;20080;-83
2024/01/18 04:12:23;;;;;;;2.65;0.50;;;;;;;;;;5046742;28;20048;-83
2024/01/18 04:14:49;;;;;;;3.70;0.40;;;;;;;;;;5057564;28;20815;-83
2024/01/18 04:17:16;;;;;;;2.05;0.45;;;;;;;;;;5070225;28;20071;-83
2024/01/18 04:19:43;;;;;;;5.10;0.47;;;;;;;;;;5055130;28;20110;-82
2024/01/18 04:22:09;;;;;;;0.95;0.40;;;;;;;;;;5046981;28;20064;-83
2024/01/18 04:24:36;;;;;;;2.25;0.60;;;;;;;;;;5050455;28;20047;-82
2024/01/18 04:27:02;;;;;;;3.90;0.63;;;;;;;;;;5067999;28;20037;-83
2024/01/18 04:29:28;;;;;;;4.30;0.50;;;;;;;;;;5069539;28;20131;-83
2024/01/18 04:31:54;;;;;;;5.45;0.60;;;;;;;;;;5067709;28;20051;-81
2024/01/18 04:34:20;;;;;;;5.55;0.70;;;;;;;;;;5063483;28;20041;-83
2024/01/18 04:36:47;;;;;;;3.50;0.90;;;;;;;;;;5035250;28;20048;-81
2024/01/18 04:39:14;;;;;;;9.65;4.22;;;;;;;;;;5036333;28;20044;-83
2024/01/18 04:41:40;;;;;;;6.18;2.00;;;;;;;;;;5050737;28;20036;-83
2024/01/18 04:44:06;;;;;;;5.60;1.13;;;;;;;;;;5046887;28;20196;-82
2024/01/18 04:46:32;;;;;;;3.25;0.82;;;;;;;;;;5064908;28;20124;-83
2024/01/18 04:48:58;;;;;;;3.53;0.88;;;;;;;;;;5052736;28;20071;-82
2024/01/18 04:51:25;;;;;;;4.35;1.20;;;;;;;;;;5047430;28;20227;-83
2024/01/18 04:53:51;;;;;;;6.50;1.20;;;;;;;;;;5066013;28;20080;-83
2024/01/18 04:56:18;;;;;;;6.10;1.60;;;;;;;;;;5067030;28;20953;-82
2024/01/18 04:58:44;;;;;;;6.88;1.17;;;;;;;;;;5031515;28;20479;-83
2024/01/18 05:01:10;;;;;;;5.68;1.00;;;;;;;;;;5064892;28;20048;-81
2024/01/18 05:03:36;;;;;;;3.70;1.13;;;;;;;;;;5048844;28;20119;-83
2024/01/18 05:06:02;;;;;;;5.60;0.82;;;;;;;;;;5051586;28;20039;-82
2024/01/18 05:08:29;;;;;;;3.25;0.73;;;;;;;;;;5063749;28;20612;-81
2024/01/18 05:10:55;;;;;;;4.10;1.25;;;;;;;;;;5048589;28;20036;-82
2024/01/18 05:13:24;;;;;;;7.43;0.88;;;;;;;;;;5032446;28;20040;-81
2024/01/18 05:15:50;;;;;;;1.45;0.95;;;;;;;;;;5067153;28;20101;-86
2024/01/18 05:18:16;;;;;;;8.00;1.02;;;;;;;;;;5035014;28;20064;-86
2024/01/18 05:20:42;;;;;;;6.38;2.03;;;;;;;;;;5029020;28;20041;-82
2024/01/18 05:23:08;;;;;;;4.63;2.65;;;;;;;;;;5052921;28;20043;-86
2024/01/18 05:25:34;;;;;;;6.15;2.10;;;;;;;;;;5053114;28;20032;-86
2024/01/18 05:28:01;;;;;;;3.13;1.58;;;;;;;;;;5033728;28;20383;-85
2024/01/18 05:30:27;;;;;;;5.80;2.78;;;;;;;;;;5068855;28;20055;-86
2024/01/18 05:32:54;;;;;;;12.50;2.63;;;;;;;;;;5025244;28;20044;-85
2024/01/18 05:35:20;;;;;;;11.25;2.55;;;;;;;;;;5070436;28;20044;-85
2024/01/18 05:37:46;;;;;;;3.30;2.05;;;;;;;;;;5054459;28;20051;-84
2024/01/18 05:40:12;;;;;;;9.85;6.40;;;;;;;;;;5050531;28;20040;-83
2024/01/18 05:42:39;;;;;;;20.48;13.93;;;;;;;;;;5049775;28;20028;-85
2024/01/18 05:45:06;;;;;;;12.98;9.77;;;;;;;;;;5060236;28;20045;-85
2024/01/18 05:47:32;;;;;;;11.65;8.15;;;;;;;;;;5036125;28;20056;-86
2024/01/18 05:49:58;;;;;;;8.57;5.82;;;;;;;;;;5049392;28;20133;-85
2024/01/18 05:52:24;;;;;;;6.47;3.65;;;;;;;;;;5069256;28;20040;-86
2024/01/18 05:54:50;;;;;;;2.50;1.90;;;;;;;;;;5035353;28;20345;-84
2024/01/18 05:57:16;;;;;;;5.05;1.00;;;;;;;;;;5063808;28;21100;-82
2024/01/18 05:59:44;;;;;;;4.63;1.20;;;;;;;;;;5066374;28;20033;-86
2024/01/18 06:02:10;;;;;;;8.00;0.85;;;;;;;;;;5050612;28;20036;-85
2024/01/18 06:04:36;;;;;;;1.80;1.00;;;;;;;;;;5054231;28;20032;-85
2024/01/18 06:07:03;;;;;;;4.10;1.10;;;;;;;;;;5035986;28;20098;-86
2024/01/18 06:09:29;;;;;;;3.83;0.68;;;;;;;;;;5052282;28;20096;-84
2024/01/18 06:11:55;;;;;;;2.83;0.80;;;;;;;;;;5052177;28;20134;-79
2024/01/18 06:14:21;;;;;;;2.88;0.73;;;;;;;;;;5069140;28;20095;-80
2024/01/18 06:16:47;;;;;;;5.93;0.85;;;;;;;;;;5065211;28;20529;-79
2024/01/18 06:19:13;;;;;;;4.88;0.60;;;;;;;;;;5049550;28;20064;-80
2024/01/18 06:21:41;;;;;;;6.30;1.95;;;;;;;;;;5051557;28;20055;-79
2024/01/18 06:24:07;;;;;;;5.55;0.50;;;;;;;;;;5070129;28;20040;-80
2024/01/18 06:26:33;;;;;;;5.22;0.40;;;;;;;;;;5032612;28;20039;-79
2024/01/18 06:28:59;;;;;;;6.13;0.70;;;;;;;;;;5034202;28;20052;-79
2024/01/18 06:31:29;;;;;;;3.55;0.60;;;;;;;;;;5068557;28;20036;-79
2024/01/18 06:33:56;;;;;;;0.73;0.40;;;;;;;;;;5036190;28;20082;-80
2024/01/18 06:36:25;;;;;;;1.65;0.52;;;;;;;;;;5050154;28;20464;-79
2024/01/18 06:38:51;;;;;;;2.28;0.60;;;;;;;;;;5049846;28;20037;-79
2024/01/18 06:41:19;;;;;;;5.32;0.65;;;;;;;;;;5068961;28;20036;-79
2024/01/18 06:43:46;;;;;;;2.33;0.60;;;;;;;;;;5072555;28;20077;-80
2024/01/18 06:46:18;;;;;;;2.55;0.40;;;;;;;;;;5067553;28;20106;-79
2024/01/18 06:48:52;;;;;;;2.85;0.70;;;;;;;;;;5049207;28;20437;-79
2024/01/18 06:51:18;;;;;;;0.93;0.73;;;;;;;;;;5052855;28;20521;-79
2024/01/18 06:53:45;;;;;;;6.70;0.80;;;;;;;;;;5066916;28;20040;-80
2024/01/18 06:56:12;;;;;;;4.40;0.50;;;;;;;;;;5069661;28;20449;-82
2024/01/18 06:58:38;;;;;;;4.13;0.52;;;;;;;;;;5061143;28;20361;-80
2024/01/18 07:01:04;;;;;;;2.22;0.70;;;;;;;;;;5045865;28;20044;-79
2024/01/18 07:03:30;;;;;;;3.95;1.42;;;;;;;;;;5066651;28;20028;-79
2024/01/18 07:05:57;;;;;;;2.67;0.70;;;;;;;;;;5052946;28;20040;-80
2024/01/18 07:08:24;;;;;;;3.55;0.82;;;;;;;;;;5051983;28;20127;-79
2024/01/18 07:10:51;;;;;;;4.40;0.80;;;;;;;;;;5060406;28;20037;-80
2024/01/18 07:13:17;;;;;;;2.45;0.75;;;;;;;;;;5064978;28;20041;-78
2024/01/18 07:15:46;;;;;;;5.25;0.70;;;;;;;;;;5063655;28;20037;-79
2024/01/18 07:18:12;;;;;;;1.75;0.52;;;;;;;;;;5072076;28;20404;-79
2024/01/18 07:20:39;;;;;;;6.63;1.20;;;;;;;;;;5050101;28;20044;-79
2024/01/18 07:23:05;;;;;;;4.28;0.80;;;;;;;;;;5068109;28;20484;-87
2024/01/18 07:25:31;;;;;;;8.90;1.42;;;;;;;;;;5034635;28;20037;-86
2024/01/18 07:27:57;;;;;;;4.45;0.77;;;;;;;;;;5033953;28;20080;-87
2024/01/18 07:30:23;;;;;;;4.53;0.90;;;;;;;;;;5071517;28;20482;-88
2024/01/18 07:32:49;;;;;;;2.83;0.93;;;;;;;;;;5065153;28;20048;-80
2024/01/18 07:35:16;;;;;;;7.55;1.05;;;;;;;;;;5054959;28;20557;-78
2024/01/18 07:37:42;;;;;;;7.47;0.93;;;;;;;;;;5075718;28;20036;-80
2024/01/18 07:40:09;;;;;;;5.85;0.80;;;;;;;;;;5069221;28;20171;-79
2024/01/18 07:42:35;;;;;;;7.93;1.00;;;;;;;;;;5066538;28;20068;-80
2024/01/18 07:45:01;;;;;;;2.83;0.70;;;;;;;;;;5060467;28;20090;-80
2024/01/18 07:47:27;;;;;;;12.02;1.10;;;;;;;;;;5073761;28;20177;-78
2024/01/18 07:49:53;;;;;;;9.48;1.05;;;;;;;;;;5066457;28;20036;-78
2024/01/18 07:52:20;;;;;;;6.55;1.33;;;;;;;;;;5052401;28;20036;-80
2024/01/18 07:54:47;;;;;;;4.10;0.80;;;;;;;;;;5069653;28;20152;-82
2024/01/18 07:57:13;;;;;;;4.50;1.10;;;;;;;;;;5048871;28;20064;-80
2024/01/18 07:59:39;;;;;;;4.30;1.00;;;;;;;;;;5038892;28;20044;-80
2024/01/18 08:02:06;;;;;;;5.10;1.15;;;;;;;;;;5069546;28;20036;-82
2024/01/18 08:04:32;;;;;;;9.95;1.30;;;;;;;;;;5053259;28;20033;-80
2024/01/18 08:06:58;;;;;;;6.78;1.60;;;;;;;;;;5038572;28;20052;-79
2024/01/18 08:09:24;;;;;;;7.88;1.20;;;;;;;;;;5054651;28;20043;-79
2024/01/18 08:11:50;;;;;;;4.63;1.23;;;;;;;;;;5072398;28;20555;-83
2024/01/18 08:14:16;;;;;;;7.00;1.20;;;;;;;;;;5051717;28;20072;-81
2024/01/18 08:16:44;;;;;;;8.00;2.20;;;;;;;;;;5037091;28;20040;-80
2024/01/18 08:19:10;;;;;;;4.82;1.52;;;;;;;;;;5054193;28;20110;-80
2024/01/18 08:21:46;;;;;;;6.78;1.38;;;;;;;;;;5056876;28;20029;-80
2024/01/18 08:24:12;;;;;;;3.97;1.58;;;;;;;;;;5074434;28;20048;-80
2024/01/18 08:26:38;;;;;;;5.97;0.80;;;;;;;;;;5069587;28;20036;-78
2024/01/18 08:29:04;;;;;;;3.30;0.93;;;;;;;;;;5061387;28;20033;-79
2024/01/18 08:31:30;;;;;;;11.50;0.90;;;;;;;;;;5049828;28;20087;-81
2024/01/18 08:33:57;;;;;;;1.90;0.90;;;;;;;;;;5048548;28;20519;-78
2024/01/18 08:36:23;;;;;;;4.05;1.30;;;;;;;;;;5069569;28;20404;-79
2024/01/18 08:38:50;;;;;;;6.68;1.88;;;;;;;;;;5052373;28;20483;-80
2024/01/18 08:41:16;;;;;;;3.13;1.00;;;;;;;;;;5049979;28;20074;-87
2024/01/18 08:43:42;;;;;;;1.77;1.15;;;;;;;;;;5077885;28;20058;-85
2024/01/18 08:46:09;;;;;;;4.10;1.42;;;;;;;;;;5081659;28;20036;-84
2024/01/18 08:48:37;;;;;;;3.42;0.90;;;;;;;;;;5054248;28;20072;-88
2024/01/18 08:51:04;;;;;;;3.45;1.38;;;;;;;;;;5055688;28;20045;-88
2024/01/18 08:53:31;;;;;;;1.70;1.17;;;;;;;;;;5078091;28;20032;-87
2024/01/18 08:55:57;;;;;;;7.13;2.13;;;;;;;;;;5077030;28;20043;-87
2024/01/18 08:58:23;;;;;;;3.65;1.10;;;;;;;;;;5074098;28;20551;-87
2024/01/18 09:00:49;;;;;;;3.80;0.88;;;;;;;;;;5059646;28;20127;-88
2024/01/18 09:03:15;;;;;;;5.90;2.10;;;;;;;;;;5045334;28;20086;-82
2024/01/18 09:05:42;;;;;;;4.05;2.90;;;;;;;;;;5060030;28;20028;-89
2024/01/18 09:08:10;;;;;;;3.70;1.00;;;;;;;;;;5064551;28;20523;-89
2024/01/18 09:10:36;;;;;;;1.83;0.73;;;;;;;;;;5055376;28;20045;-88
2024/01/18 09:13:02;;;;;;;3.92;1.33;;;;;;;;;;5047384;28;20157;-87
2024/01/18 09:15:28;;;;;;;3.05;0.93;;;;;;;;;;5053897;28;20051;-85
2024/01/18 09:17:54;;;;;;;3.83;0.80;;;;;;;;;;5056540;28;20024;-85
2024/01/18 09:20:20;;;;;;;5.00;1.13;;;;;;;;;;5078655;28;20068;-87
2024/01/18 09:22:47;;;;;;;3.90;1.17;;;;;;;;;;5058627;28;20032;-88
2024/01/18 09:25:16;;;;;;;12.63;3.67;;;;;;;;;;5064110;28;20071;-88
2024/01/18 09:27:43;;;;;;;16.80;6.60;;;;;;;;;;5052761;28;20043;-87
2024/01/18 09:30:09;;;;;;;15.75;8.02;;;;;;;;;;5054758;28;20115;-87
2024/01/18 09:32:36;;;;;;;21.25;7.97;;;;;;;;;;5070964;28;20079;-86
2024/01/18 09:35:02;;;;;;;11.30;5.82;;;;;;;;;;5054434;28;20044;-87
2024/01/18 09:37:28;;;;;;;10.73;2.38;;;;;;;;;;5066644;28;20033;-85
2024/01/18 09:39:54;;;;;;;5.97;1.48;;;;;;;;;;5058648;28;20063;-82
2024/01/18 09:42:21;;;;;;;8.65;4.28;;;;;;;;;;5058144;28;20043;-81
2024/01/18 09:44:48;;;;;;;9.95;1.98;;;;;;;;;;5064628;28;20070;-81
2024/01/18 09:47:18;;;;;;;3.75;2.40;;;;;;;;;;5069195;28;20120;-80
2024/01/18 09:49:46;;;;;;;3.72;2.25;;;;;;;;;;5047679;28;20492;-81
2024/01/18 09:52:12;;;;;;;5.47;1.77;;;;;;;;;;5064750;28;20041;-80
2024/01/18 09:54:39;;;;;;;3.25;1.50;;;;;;;;;;5072783;28;20048;-81
2024/01/18 09:57:07;;;;;;;5.55;1.20;;;;;;;;;;5068343;28;20044;-80
2024/01/18 09:59:38;;;;;;;5.45;1.35;;;;;;;;;;5066810;28;20053;-81
2024/01/18 10:02:04;;;;;;;4.30;1.10;;;;;;;;;;5057231;28;20033;-78
2024/01/18 10:04:32;;;;;;;7.90;1.20;;;;;;;;;;5070613;28;20093;-80
2024/01/18 10:06:59;;;;;;;3.20;1.20;;;;;;;;;;5067862;28;20120;-81
2024/01/18 10:09:25;;;;;;;2.42;0.75;;;;;;;;;;5032301;28;20072;-81
2024/01/18 10:11:51;;;;;;;1.13;0.50;;;;;;;;;;5067960;28;20120;-81
2024/01/18 10:14:17;;;;;;;2.97;0.60;;;;;;;;;;5049568;28;20094;-81
2024/01/18 10:16:43;;;;;;;3.15;0.65;;;;;;;;;;5067349;28;20029;-83
2024/01/18 10:19:18;;;;;;;3.25;0.70;;;;;;;;;;5037589;28;20161;-80
2024/01/18 10:21:47;;;;;;;4.72;0.73;;;;;;;;;;5059266;28;20044;-80
2024/01/18 10:24:14;;;;;;;2.60;0.95;;;;;;;;;;5071312;28;20534;-80
2024/01/18 10:26:40;;;;;;;3.47;0.98;;;;;;;;;;5070119;28;20044;-81
2024/01/18 10:29:08;;;;;;;2.88;0.82;;;;;;;;;;5070266;28;20060;-81
2024/01/18 10:31:38;;;;;;;1.00;0.75;;;;;;;;;;5072600;28;20487;-81
2024/01/18 10:34:05;;;;;;;5.97;0.95;;;;;;;;;;5074061;28;20078;-80
2024/01/18 10:36:32;;;;;;;5.78;0.90;;;;;;;;;;5076715;28;20032;-82
2024/01/18 10:38:58;;;;;;;5.40;0.82;;;;;;;;;;5077930;28;20407;-80
2024/01/18 10:41:24;;;;;;;2.38;0.90;;;;;;;;;;5055317;28;20131;-81
2024/01/18 10:43:51;;;;;;;4.20;1.00;;;;;;;;;;5072323;28;20036;-80
2024/01/18 10:46:17;;;;;;;3.70;1.65;;;;;;;;;;5067813;28;20040;-82
2024/01/18 10:48:49;;;;;;;5.95;0.90;;;;;;;;;;5062068;28;20094;-81
2024/01/18 10:51:16;;;;;;;5.45;1.00;;;;;;;;;;5077719;28;20047;-81
2024/01/18 10:53:48;;;;;;;7.78;0.82;;;;;;;;;;5074066;28;20040;-86
2024/01/18 10:56:14;;;;;;;4.50;0.80;;;;;;;;;;5061711;28;20040;-86
2024/01/18 10:58:40;;;;;;;2.47;1.30;;;;;;;;;;5057042;28;20044;-86
2024/01/18 11:01:06;;;;;;;12.50;1.25;;;;;;;;;;5062734;28;20074;-85
2024/01/18 11:03:34;;;;;;;8.05;1.00;;;;;;;;;;5061733;28;20036;-85
2024/01/18 11:06:04;;;;;;;3.55;0.52;;;;;;;;;;5081461;28;20055;-86
2024/01/18 11:08:32;;;;;;;4.50;0.90;;;;;;;;;;5054109;28;20551;-87
2024/01/18 11:10:59;;;;;;;2.95;0.90;;;;;;;;;;5071249;28;20048;-86
2024/01/18 11:13:25;;;;;;;5.53;1.00;;;;;;;;;;5055840;28;20433;-86
2024/01/18 11:15:52;;;;;;;5.35;0.90;;;;;;;;;;5062361;28;20099;-87
2024/01/18 11:18:18;;;;;;;5.10;1.00;;;;;;;;;;5036926;28;20537;-86
2024/01/18 11:21:00;;;;;;;8.02;1.30;;;;;;;;;;5072882;28;20059;-86
2024/01/18 11:23:27;;;;;;;1.08;0.95;;;;;;;;;;5057071;28;20527;-85
2024/01/18 11:25:54;;;;;;;2.95;0.80;;;;;;;;;;5064288;28;20451;-86
2024/01/18 11:28:24;;;;;;;1.95;0.93;;;;;;;;;;5055472;28;20042;-87
2024/01/18 11:30:50;;;;;;;6.57;0.98;;;;;;;;;;5078946;28;20061;-87
2024/01/18 11:33:16;;;;;;;2.85;1.05;;;;;;;;;;5043122;28;20062;-87
2024/01/18 11:35:42;;;;;;;3.10;0.63;;;;;;;;;;5049415;28;21680;-87
2024/01/18 11:38:24;;;;;;;1.85;0.50;;;;;;;;;;5072085;28;20040;-87
2024/01/18 11:40:56;;;;;;;3.13;0.60;;;;;;;;;;5066452;28;20509;-88
2024/01/18 11:43:23;;;;;;;1.52;0.40;;;;;;;;;;5077493;28;20162;-85
2024/01/18 11:45:54;;;;;;;5.10;0.70;;;;;;;;;;5067192;28;20043;-88
2024/01/18 11:48:21;;;;;;;2.35;0.50;;;;;;;;;;5077303;28;20561;-87
2024/01/18 11:50:47;;;;;;;2.95;0.43;;;;;;;;;;5036849;28;20420;-86
2024/01/18 11:53:14;;;;;;;3.90;0.60;;;;;;;;;;5085782;28;20091;-87
2024/01/18 11:55:46;;;;;;;2.25;0.68;;;;;;;;;;5066857;28;20070;-88
2024/01/18 11:58:17;;;;;;;4.57;1.17;;;;;;;;;;5069040;28;20044;-87
2024/01/18 12:00:43;;;;;;;2.80;0.50;;;;;;;;;;5058509;28;20040;-87
2024/01/18 12:03:12;;;;;;;4.80;0.60;;;;;;;;;;5069780;28;20040;-83
2024/01/18 12:05:40;;;;;;;4.28;1.05;;;;;;;;;;5060718;28;20039;-84
2024/01/18 12:08:07;;;;;;;2.83;0.50;;;;;;;;;;5069036;28;20051;-83
2024/01/18 12:10:34;;;;;;;1.88;0.63;;;;;;;;;;5051604;28;20035;-82
2024/01/18 12:13:00;;;;;;;9.77;1.00;;;;;;;;;;5059253;28;20126;-81
2024/01/18 12:15:26;;;;;;;1.67;0.50;;;;;;;;;;5037015;28;20840;-81
2024/01/18 12:17:55;;;;;;;8.60;1.10;;;;;;;;;;5058469;28;20036;-82
2024/01/18 12:20:21;;;;;;;14.32;1.33;;;;;;;;;;5064080;28;20060;-82
2024/01/18 12:22:47;;;;;;;3.60;0.77;;;;;;;;;;5080647;28;20403;-82
2024/01/18 12:25:13;;;;;;;6.88;1.00;;;;;;;;;;5057672;28;20051;-83
2024/01/18 12:27:41;;;;;;;4.85;0.73;;;;;;;;;;5060200;28;20119;-80
2024/01/18 12:30:07;;;;;;;4.57;0.80;;;;;;;;;;5052291;28;20041;-81
2024/01/18 12:32:35;;;;;;;2.53;0.70;;;;;;;;;;5045945;28;20044;-81
2024/01/18 12:35:01;;;;;;;3.15;0.90;;;;;;;;;;5064196;28;20047;-80
2024/01/18 12:37:29;;;;;;;2.78;0.73;;;;;;;;;;5076816;28;20040;-82
2024/01/18 12:39:55;;;;;;;2.35;0.75;;;;;;;;;;5069883;28;20036;-81
2024/01/18 12:42:21;;;;;;;4.20;1.40;;;;;;;;;;5061577;28;20517;-81
2024/01/18 12:44:52;;;;;;;4.03;0.80;;;;;;;;;;5070215;28;20071;-82
2024/01/18 12:47:18;;;;;;;9.88;2.05;;;;;;;;;;5056664;28;20044;-81
2024/01/18 12:49:45;;;;;;;4.88;1.30;;;;;;;;;;5077546;28;20487;-83
2024/01/18 12:52:13;;;;;;;3.45;0.90;;;;;;;;;;5054580;28;20060;-83
2024/01/18 12:54:39;;;;;;;4.50;0.93;;;;;;;;;;5084516;28;20483;-80
2024/01/18 12:57:05;;;;;;;1.15;0.82;;;;;;;;;;5050856;28;20552;-84
2024/01/18 12:59:32;;;;;;;3.13;1.15;;;;;;;;;;5075290;28;20036;-83
2024/01/18 13:01:58;;;;;;;6.55;0.88;;;;;;;;;;5077118;28;20063;-83
2024/01/18 13:04:25;;;;;;;2.10;0.82;;;;;;;;;;5059419;28;20388;-83
2024/01/18 13:06:53;;;;;;;4.38;1.10;;;;;;;;;;5067653;28;20390;-83
2024/01/18 13:09:24;;;;;;;4.22;1.15;;;;;;;;;;5060150;28;20040;-82
2024/01/18 13:11:50;;;;;;;1.35;0.80;;;;;;;;;;5073250;28;20043;-82
2024/01/18 13:14:16;;;;;;;7.15;0.88;;;;;;;;;;5059486;28;20066;-87
2024/01/18 13:16:44;;;;;;;2.03;0.70;;;;;;;;;;5070637;28;20043;-88
2024/01/18 13:19:10;;;;;;;3.03;0.80;;;;;;;;;;5084121;28;20720;-86
2024/01/18 13:21:37;;;;;;;4.03;0.98;;;;;;;;;;5069171;28;20079;-87
2024/01/18 13:24:03;;;;;;;3.83;0.85;;;;;;;;;;5081034;28;20051;-88
2024/01/18 13:26:30;;;;;;;2.22;0.60;;;;;;;;;;5060380;28;20039;-86
2024/01/18 13:28:57;;;;;;;6.03;0.95;;;;;;;;;;5058454;28;20039;-89
2024/01/18 13:31:23;;;;;;;3.05;0.80;;;;;;;;;;5070596;28;20085;-88
2024/01/18 13:33:49;;;;;;;5.50;0.90;;;;;;;;;;5059609;28;20040;-86
2024/01/18 13:36:16;;;;;;;10.07;2.38;;;;;;;;;;5059567;28;20074;-88
2024/01/18 13:38:42;;;;;;;2.25;0.80;;;;;;;;;;5089587;28;20088;-86
2024/01/18 13:41:08;;;;;;;2.63;0.65;;;;;;;;;;5079126;28;20118;-88
2024/01/18 13:43:34;;;;;;;11.52;1.98;;;;;;;;;;5073384;28;20033;-88
2024/01/18 13:46:04;;;;;;;3.53;0.70;;;;;;;;;;5058676;28;20044;-85
2024/01/18 13:48:32;;;;;;;5.70;1.58;;;;;;;;;;5071029;28;20036;-87
2024/01/18 13:50:58;;;;;;;2.67;0.77;;;;;;;;;;5088177;28;20505;-85
2024/01/18 13:53:25;;;;;;;7.80;0.98;;;;;;;;;;5049175;28;20047;-88
2024/01/18 13:55:52;;;;;;;2.70;1.02;;;;;;;;;;5068313;28;20035;-86
2024/01/18 13:58:18;;;;;;;4.35;0.70;;;;;;;;;;5064877;28;20054;-86
2024/01/18 14:00:44;;;;;;;5.70;0.88;;;;;;;;;;5079837;28;20032;-85
2024/01/18 14:03:11;;;;;;;3.42;0.70;;;;;;;;;;5036986;28;20090;-88
2024/01/18 14:05:37;;;;;;;2.03;0.60;;;;;;;;;;5077303;28;20035;-86
2024/01/18 14:08:05;;;;;;;3.08;0.75;;;;;;;;;;5081476;28;20119;-87
2024/01/18 14:10:31;;;;;;;8.77;0.93;;;;;;;;;;5075011;28;20058;-86
2024/01/18 14:12:58;;;;;;;5.68;0.77;;;;;;;;;;5082053;28;20040;-86
2024/01/18 14:15:24;;;;;;;3.58;0.85;;;;;;;;;;5063243;28;20040;-85
2024/01/18 14:17:51;;;;;;;6.25;1.38;;;;;;;;;;5051774;28;20060;-85
2024/01/18 14:20:17;;;;;;;4.88;1.45;;;;;;;;;;5077247;28;20048;-85
2024/01/18 14:22:45;;;;;;;7.43;2.05;;;;;;;;;;5061377;28;20636;-84
2024/01/18 14:25:11;;;;;;;6.85;2.20;;;;;;;;;;5060598;28;20112;-86
2024/01/18 14:27:37;;;;;;;5.50;1.60;;;;;;;;;;5077228;28;20494;-86
2024/01/18 14:30:04;;;;;;;10.73;1.45;;;;;;;;;;5081395;28;20044;-87
2024/01/18 14:32:32;;;;;;;5.70;1.25;;;;;;;;;;5076270;28;20113;-88
2024/01/18 14:34:58;;;;;;;9.13;1.38;;;;;;;;;;5073984;28;20059;-87
2024/01/18 14:37:25;;;;;;;7.05;1.00;;;;;;;;;;5047576;28;20075;-87
2024/01/18 14:39:52;;;;;;;3.60;0.90;;;;;;;;;;5062362;28;20479;-87